KHLB/HLB METAR and TAF weather

Enter ICAO airport designator
Station Type Date Time Source
KHLB METAR 2022/08/12 14:15 UTC NOAA

KHLB 121415Z AUTO VRB04KT 10SM CLR 20/17 A3022 RMK A01


Station Type Date Time Source
KHLB Decoded METAR 2022/08/12 14:15 UTC NOAA

Station name not available
Aug 12, 2022 - 10:15 AM EDT / 2022.08.12 1415 UTC
Wind: Variable at 5 MPH (4 KT):0
Visibility: 10 mile(s):0
Sky conditions: clear
Temperature: 68 F (20 C)
Dew Point: 62 F (17 C)
Relative Humidity: 82%
Pressure (altimeter): 30.22 in. Hg (1023 hPa)
ob: KHLB 121415Z AUTO VRB04KT 10SM CLR 20/17 A3022 RMK A01
cycle: 14

Station Type Date Time Source
KHLB TAF UTC NOAA

Error!

Example: see airport list